createdAt,value
2022-10-05T00:02:00.628Z,101414.91
2022-10-05T00:05:14.380Z,101413.28
2022-10-05T00:12:37.571Z,101423.56
2022-10-05T00:15:52.568Z,101409.03
2022-10-05T00:19:01.062Z,101416.78
2022-10-05T00:22:15.571Z,101414.91
2022-10-05T00:25:24.363Z,101414.06
2022-10-05T00:28:41.565Z,101419.97
2022-10-05T00:32:03.611Z,101410.88
2022-10-05T00:35:05.882Z,101411.03
2022-10-05T00:38:35.582Z,101412.59
2022-10-05T00:46:06.638Z,101403.53
2022-10-05T00:50:00.553Z,101403.53
2022-10-05T00:57:33.588Z,101402.72
2022-10-05T01:01:00.633Z,101400.34
2022-10-05T01:04:21.559Z,101409.81
2022-10-05T01:07:46.547Z,101406.09
2022-10-05T01:11:22.570Z,101405.06
2022-10-05T01:14:43.557Z,101417.25
2022-10-05T01:18:03.014Z,101421.22
2022-10-05T01:21:32.569Z,101429.91
2022-10-05T01:25:20.987Z,101427.88
2022-10-05T01:28:35.577Z,101428.06
2022-10-05T01:39:46.569Z,101442.47
2022-10-05T01:47:32.577Z,101450.53
2022-10-05T01:50:56.112Z,101430.84
2022-10-05T01:54:22.567Z,101440.47
2022-10-05T01:57:59.589Z,101440.81
2022-10-05T02:01:12.873Z,101439.19
2022-10-05T02:05:04.913Z,101445.00
2022-10-05T02:08:41.566Z,101442.59
2022-10-05T02:12:21.561Z,101447.00
2022-10-05T02:15:44.597Z,101458.59
2022-10-05T02:19:04.562Z,101459.88
2022-10-05T02:22:41.668Z,101461.41
2022-10-05T02:25:59.554Z,101467.87
2022-10-05T02:29:19.569Z,101463.00
2022-10-05T02:32:49.511Z,101459.22
2022-10-05T02:36:35.588Z,101460.63
2022-10-05T02:43:49.582Z,101468.06
2022-10-05T02:47:41.906Z,101472.97
2022-10-05T02:51:08.568Z,101474.59
2022-10-05T02:55:09.576Z,101478.91
2022-10-05T02:58:28.713Z,101479.34
2022-10-05T03:01:47.603Z,101475.09
2022-10-05T03:05:17.559Z,101475.44
2022-10-05T03:09:10.588Z,101475.19
2022-10-05T03:12:37.556Z,101478.69
2022-10-05T03:20:00.587Z,101469.22
2022-10-05T03:23:44.560Z,101459.34
2022-10-05T03:27:22.539Z,101453.66
2022-10-05T03:30:48.635Z,101442.66
2022-10-05T03:38:25.580Z,101447.53
2022-10-05T03:41:51.576Z,101447.28
2022-10-05T03:45:39.549Z,101447.78
2022-10-05T03:49:12.579Z,101447.56
2022-10-05T03:52:38.193Z,101465.75
2022-10-05T03:56:13.565Z,101465.50
2022-10-05T04:03:39.565Z,101478.38
2022-10-05T04:06:50.703Z,101477.22
2022-10-05T04:10:01.570Z,101474.56
2022-10-05T04:13:21.557Z,101479.28
2022-10-05T04:16:44.942Z,101473.72
2022-10-05T04:20:05.591Z,101479.19
2022-10-05T04:23:57.581Z,101474.63
2022-10-05T04:27:23.956Z,101477.69
2022-10-05T04:30:32.546Z,101481.37
2022-10-05T04:34:03.557Z,101487.19
2022-10-05T04:37:21.665Z,101486.59
2022-10-05T04:40:33.588Z,101482.31
2022-10-05T04:44:29.553Z,101478.63
2022-10-05T04:47:41.000Z,101488.78
2022-10-05T04:51:23.584Z,101497.47
2022-10-05T04:55:16.552Z,101490.66
2022-10-05T04:58:31.115Z,101497.16
2022-10-05T05:02:02.605Z,101488.59
2022-10-05T05:06:11.956Z,101486.50
2022-10-05T05:09:47.551Z,101484.84
2022-10-05T05:13:54.575Z,101474.69
2022-10-05T05:17:14.946Z,101478.94
2022-10-05T05:20:47.588Z,101478.50
2022-10-05T05:24:03.956Z,101482.31
2022-10-05T05:27:40.585Z,101484.72
2022-10-05T05:31:01.571Z,101485.91
2022-10-05T05:34:34.833Z,101492.50
2022-10-05T05:37:59.545Z,101495.63
2022-10-05T05:41:23.563Z,101489.16
2022-10-05T05:44:43.282Z,101499.13
2022-10-05T05:48:00.560Z,101501.19
2022-10-05T05:51:17.573Z,101511.16
2022-10-05T05:54:51.234Z,101507.09
2022-10-05T05:58:29.566Z,101515.03
2022-10-05T06:01:49.009Z,101530.81
2022-10-05T06:05:09.576Z,101520.91
2022-10-05T06:08:31.580Z,101538.72
2022-10-05T06:11:51.783Z,101554.22
2022-10-05T06:15:35.547Z,101563.38
2022-10-05T06:18:41.135Z,101571.31
2022-10-05T06:22:10.600Z,101556.94
2022-10-05T06:25:55.010Z,101576.56
2022-10-05T06:29:21.562Z,101595.66
2022-10-05T06:33:07.708Z,101597.34
2022-10-05T06:36:43.772Z,101592.22
2022-10-05T06:40:17.605Z,101608.59
2022-10-05T06:43:46.586Z,101605.09
2022-10-05T06:47:20.553Z,101591.62
2022-10-05T06:50:59.555Z,101595.50
2022-10-05T06:54:38.552Z,101594.84
2022-10-05T06:58:25.571Z,101601.12
2022-10-05T07:01:51.808Z,101612.00
2022-10-05T07:05:25.742Z,101614.88
2022-10-05T07:08:46.569Z,101619.38
2022-10-05T07:12:07.880Z,101627.81
2022-10-05T07:15:32.532Z,101634.97
2022-10-05T07:18:50.554Z,101635.75
2022-10-05T07:22:28.272Z,101639.97
2022-10-05T07:25:57.558Z,101619.22
2022-10-05T07:29:18.581Z,101619.06
2022-10-05T07:32:46.603Z,101612.25
2022-10-05T07:36:16.567Z,101625.97
2022-10-05T07:39:58.336Z,101637.16
2022-10-05T07:43:10.571Z,101631.59
2022-10-05T07:46:43.632Z,101629.78
2022-10-05T07:50:05.571Z,101640.03
2022-10-05T07:53:41.606Z,101620.63
2022-10-05T07:57:05.558Z,101625.16
2022-10-05T08:00:23.446Z,101623.19
2022-10-05T08:03:49.560Z,101631.41
2022-10-05T08:07:09.648Z,101625.88
2022-10-05T08:10:18.881Z,101639.72
2022-10-05T08:13:44.543Z,101636.09
2022-10-05T08:17:03.756Z,101631.66
2022-10-05T08:20:21.095Z,101624.50
2022-10-05T08:23:48.573Z,101617.75
2022-10-05T08:27:10.569Z,101611.00
2022-10-05T08:30:15.616Z,101598.72
2022-10-05T08:37:36.552Z,101602.41
2022-10-05T08:40:51.194Z,101605.16
2022-10-05T08:44:34.597Z,101598.50
2022-10-05T08:48:20.890Z,101595.87
2022-10-05T08:52:06.547Z,101598.75
2022-10-05T08:55:35.563Z,101590.09
2022-10-05T08:59:11.620Z,101592.78
2022-10-05T09:03:07.566Z,101594.84
2022-10-05T09:06:59.564Z,101589.78
2022-10-05T09:10:24.560Z,101601.94
2022-10-05T09:14:10.618Z,101597.41
2022-10-05T09:18:06.963Z,101611.78
2022-10-05T09:21:24.579Z,101622.34
2022-10-05T09:25:01.572Z,101626.94
2022-10-05T09:28:27.843Z,101627.44
2022-10-05T09:31:57.553Z,101629.56
2022-10-05T09:35:21.557Z,101622.91
2022-10-05T09:38:55.588Z,101625.44
2022-10-05T09:42:16.214Z,101622.03
2022-10-05T09:45:42.568Z,101626.91
2022-10-05T09:49:24.577Z,101618.44
2022-10-05T09:52:48.231Z,101627.56
2022-10-05T09:56:21.750Z,101622.44
2022-10-05T09:59:46.578Z,101615.19
2022-10-05T10:03:26.179Z,101615.41
2022-10-05T10:06:55.569Z,101612.87
2022-10-05T10:10:46.566Z,101607.06
2022-10-05T10:14:00.876Z,101609.25
2022-10-05T10:17:23.599Z,101605.66
2022-10-05T10:20:48.570Z,101615.06
2022-10-05T10:24:12.553Z,101612.09
2022-10-05T10:27:52.343Z,101617.13
2022-10-05T10:31:26.090Z,101606.69
2022-10-05T10:34:54.684Z,101613.44
2022-10-05T10:38:21.576Z,101614.94
2022-10-05T10:42:02.578Z,101613.78
2022-10-05T10:45:14.105Z,101608.28
2022-10-05T10:48:57.567Z,101614.91
2022-10-05T10:52:42.585Z,101614.69
2022-10-05T10:56:12.563Z,101608.28
2022-10-05T10:59:36.495Z,101608.34
2022-10-05T11:03:06.664Z,101615.69
2022-10-05T11:06:37.012Z,101613.03
2022-10-05T11:09:54.561Z,101620.69
2022-10-05T11:13:17.557Z,101617.63
2022-10-05T11:16:31.991Z,101606.66
2022-10-05T11:20:15.660Z,101606.97
2022-10-05T11:23:38.589Z,101602.56
2022-10-05T11:27:33.139Z,101605.97
2022-10-05T11:30:56.619Z,101596.09
2022-10-05T11:34:35.561Z,101595.47
2022-10-05T11:38:02.494Z,101588.97
2022-10-05T11:41:52.802Z,101583.38
2022-10-05T11:45:49.600Z,101573.13
2022-10-05T11:48:59.073Z,101578.91
2022-10-05T11:52:29.581Z,101577.22
2022-10-05T11:55:40.626Z,101572.22
2022-10-05T11:59:18.254Z,101566.09
2022-10-05T12:02:45.666Z,101567.94
2022-10-05T12:06:15.601Z,101565.63
2022-10-05T12:09:37.421Z,101555.97
2022-10-05T12:12:58.725Z,101554.12
2022-10-05T12:16:32.762Z,101552.78
2022-10-05T12:19:58.573Z,101553.56
2022-10-05T12:23:29.594Z,101543.34
2022-10-05T12:26:48.660Z,101544.44
2022-10-05T12:30:21.589Z,101538.44
2022-10-05T12:34:02.792Z,101544.63
2022-10-05T12:37:52.581Z,101543.66
2022-10-05T12:41:24.593Z,101536.91
2022-10-05T12:45:11.884Z,101527.59
2022-10-05T12:48:45.609Z,101535.72
2022-10-05T12:52:10.591Z,101525.37
2022-10-05T12:55:38.597Z,101515.94
2022-10-05T12:59:00.886Z,101507.50
2022-10-05T13:02:28.621Z,101512.59
2022-10-05T13:05:34.113Z,101513.66
2022-10-05T13:09:02.590Z,101505.22
2022-10-05T13:12:48.595Z,101501.94
2022-10-05T13:16:21.647Z,101511.31
2022-10-05T13:19:45.977Z,101485.72
2022-10-05T13:23:19.583Z,101518.84
2022-10-05T13:26:50.608Z,101511.81
2022-10-05T13:30:14.301Z,101503.34
2022-10-05T13:33:50.591Z,101502.06
2022-10-05T13:37:16.078Z,101494.00
2022-10-05T13:40:39.624Z,101493.69
2022-10-05T13:44:03.608Z,101498.72
2022-10-05T13:47:50.553Z,101494.91
2022-10-05T13:51:18.580Z,101496.50
2022-10-05T13:54:44.613Z,101495.13
2022-10-05T13:58:02.100Z,101490.13
2022-10-05T14:01:50.647Z,101488.38
2022-10-05T14:05:06.587Z,101487.69
2022-10-05T14:08:23.605Z,101488.31
2022-10-05T14:11:38.585Z,101495.97
2022-10-05T14:15:01.638Z,101494.34
2022-10-05T14:18:25.016Z,101491.19
2022-10-05T14:21:37.792Z,101494.06
2022-10-05T14:25:02.594Z,101492.38
2022-10-05T14:28:23.294Z,101492.75
2022-10-05T14:31:43.681Z,101495.25
2022-10-05T14:35:00.606Z,101488.16
2022-10-05T14:38:28.748Z,101496.19
2022-10-05T14:41:52.617Z,101496.28
2022-10-05T14:45:15.826Z,101495.78
2022-10-05T14:48:32.609Z,101483.06
2022-10-05T14:51:41.613Z,101490.50
2022-10-05T14:55:04.439Z,101494.34
2022-10-05T14:58:41.662Z,101488.84
2022-10-05T15:02:18.835Z,101492.44
2022-10-05T15:05:35.283Z,101489.62
2022-10-05T15:08:58.603Z,101476.69
2022-10-05T15:12:07.421Z,101474.59
2022-10-05T15:15:50.645Z,101472.56
2022-10-05T15:19:38.604Z,101459.91
2022-10-05T15:22:59.178Z,101460.09
2022-10-05T15:26:36.636Z,101469.12
2022-10-05T15:30:07.602Z,101472.66
2022-10-05T15:33:34.165Z,101474.03
2022-10-05T15:36:42.590Z,101476.53
2022-10-05T15:40:12.132Z,101469.12
2022-10-05T15:43:29.622Z,101455.25
2022-10-05T15:46:50.617Z,101457.13
2022-10-05T15:50:12.653Z,101454.59
2022-10-05T15:53:55.611Z,101452.47
2022-10-05T15:57:11.664Z,101460.16
2022-10-05T16:00:28.608Z,101458.34
2022-10-05T16:03:56.633Z,101458.94
2022-10-05T16:07:23.624Z,101454.69
2022-10-05T16:10:37.031Z,101463.75
2022-10-05T16:14:01.617Z,101465.50
2022-10-05T16:17:27.638Z,101454.13
2022-10-05T16:21:13.649Z,101453.91
2022-10-05T16:24:50.237Z,101462.09
2022-10-05T16:28:31.693Z,101468.13
2022-10-05T16:32:25.625Z,101468.50
2022-10-05T16:36:08.638Z,101470.53
2022-10-05T16:39:48.580Z,101475.50
2022-10-05T16:43:22.646Z,101481.88
2022-10-05T16:46:52.560Z,101481.41
2022-10-05T16:50:13.652Z,101485.28
2022-10-05T16:53:34.618Z,101487.25
2022-10-05T16:56:58.650Z,101491.59
2022-10-05T17:00:19.173Z,101484.91
2022-10-05T17:03:38.633Z,101476.38
2022-10-05T17:07:14.801Z,101506.81
2022-10-05T17:10:37.645Z,101507.66
2022-10-05T17:14:04.605Z,101504.47
2022-10-05T17:18:02.642Z,101504.59
2022-10-05T17:21:24.632Z,101516.53
2022-10-05T17:24:42.664Z,101519.25
2022-10-05T17:27:57.941Z,101522.81
2022-10-05T17:31:27.689Z,101517.97
2022-10-05T17:34:45.633Z,101496.78
2022-10-05T17:38:10.973Z,101501.94
2022-10-05T17:41:34.633Z,101518.63
2022-10-05T17:44:43.351Z,101521.34
2022-10-05T17:48:15.666Z,101527.88
2022-10-05T17:51:36.622Z,101516.59
2022-10-05T17:54:50.632Z,101526.34
2022-10-05T17:58:20.579Z,101521.50
2022-10-05T18:01:47.666Z,101523.16
2022-10-05T18:05:22.627Z,101524.78
2022-10-05T18:08:31.802Z,101526.41
2022-10-05T18:11:50.647Z,101523.19
2022-10-05T18:15:11.945Z,101524.84
2022-10-05T18:18:33.756Z,101519.47
2022-10-05T18:22:06.827Z,101522.22
2022-10-05T18:25:30.686Z,101522.25
2022-10-05T18:28:38.680Z,101522.78
2022-10-05T18:32:04.653Z,101529.81
2022-10-05T18:35:26.301Z,101519.06
2022-10-05T18:38:52.982Z,101522.28
2022-10-05T18:42:19.684Z,101526.31
2022-10-05T18:45:28.988Z,101524.44
2022-10-05T18:49:04.009Z,101527.44
2022-10-05T18:52:19.190Z,101517.78
2022-10-05T18:55:42.686Z,101517.50
2022-10-05T18:59:11.046Z,101519.13
2022-10-05T19:02:53.129Z,101514.84
2022-10-05T19:06:33.603Z,101521.06
2022-10-05T19:10:03.398Z,101521.59
2022-10-05T19:13:49.687Z,101512.75
2022-10-05T19:17:36.001Z,101515.44
2022-10-05T19:21:02.370Z,101511.41
2022-10-05T19:24:55.054Z,101524.87
2022-10-05T19:28:26.560Z,101526.22
2022-10-05T19:32:03.671Z,101531.34
2022-10-05T19:35:39.639Z,101535.09
2022-10-05T19:39:02.848Z,101533.50
2022-10-05T19:42:26.655Z,101539.13
2022-10-05T19:45:36.834Z,101539.13
2022-10-05T19:48:52.686Z,101544.50
2022-10-05T19:52:02.642Z,101542.91
2022-10-05T19:55:15.002Z,101545.31
2022-10-05T19:58:31.361Z,101549.38
2022-10-05T20:01:33.552Z,101545.56
2022-10-05T20:04:51.977Z,101542.34
2022-10-05T20:07:53.955Z,101549.88
2022-10-05T20:11:31.649Z,101551.78
2022-10-05T20:14:46.643Z,101556.31
2022-10-05T20:17:48.446Z,101561.97
2022-10-05T20:21:03.620Z,101546.63
2022-10-05T20:24:20.668Z,101562.25
2022-10-05T20:27:50.005Z,101573.50
2022-10-05T20:30:58.742Z,101572.97
2022-10-05T20:34:07.159Z,101533.66
2022-10-05T20:37:24.664Z,101568.66
2022-10-05T20:40:39.644Z,101576.72
2022-10-05T20:43:41.410Z,101568.34
2022-10-05T20:46:56.719Z,101572.91
2022-10-05T20:50:05.665Z,101580.97
2022-10-05T20:53:14.235Z,101577.97
2022-10-05T20:56:29.659Z,101574.47
2022-10-05T20:59:31.718Z,101575.50
2022-10-05T21:02:46.679Z,101573.91
2022-10-05T21:05:55.126Z,101572.56
2022-10-05T21:09:03.654Z,101573.31
2022-10-05T21:12:19.634Z,101573.84
2022-10-05T21:15:28.269Z,101577.62
2022-10-05T21:18:42.658Z,101580.28
2022-10-05T21:21:57.621Z,101575.72
2022-10-05T21:25:05.669Z,101563.88
2022-10-05T21:28:14.236Z,101574.84
2022-10-05T21:31:28.703Z,101579.66
2022-10-05T21:34:47.627Z,101572.91
2022-10-05T21:38:02.652Z,101577.72
2022-10-05T21:41:17.621Z,101580.91
2022-10-05T21:44:19.354Z,101570.62
2022-10-05T21:47:33.629Z,101571.22
2022-10-05T21:50:42.666Z,101572.22
2022-10-05T21:53:56.898Z,101578.38
2022-10-05T21:57:05.637Z,101569.72
2022-10-05T22:00:23.625Z,101569.69
2022-10-05T22:03:25.476Z,101567.47
2022-10-05T22:06:41.626Z,101561.88
2022-10-05T22:09:51.472Z,101562.09
2022-10-05T22:12:59.626Z,101563.13
2022-10-05T22:16:08.222Z,101560.19
2022-10-05T22:19:22.638Z,101557.50
2022-10-05T22:22:37.644Z,101558.59
2022-10-05T22:25:39.672Z,101560.72
2022-10-05T22:28:57.665Z,101551.31
2022-10-05T22:32:06.140Z,101554.53
2022-10-05T22:35:27.660Z,101559.34
2022-10-05T22:38:36.538Z,101554.50
2022-10-05T22:41:44.681Z,101565.72
2022-10-05T22:44:53.137Z,101552.31
2022-10-05T22:48:01.656Z,101552.37
2022-10-05T22:51:17.648Z,101535.19
2022-10-05T22:54:29.577Z,101544.91
2022-10-05T22:57:49.671Z,101549.22
2022-10-05T23:01:06.339Z,101548.66
2022-10-05T23:04:14.638Z,101552.69
2022-10-05T23:07:29.672Z,101538.50
2022-10-05T23:10:44.631Z,101531.00
2022-10-05T23:13:52.650Z,101524.28
2022-10-05T23:17:07.704Z,101515.97
2022-10-05T23:20:09.979Z,101523.38
2022-10-05T23:23:24.677Z,101522.38
2022-10-05T23:26:26.822Z,101525.28
2022-10-05T23:29:41.644Z,101527.12
2022-10-05T23:32:50.268Z,101519.31
2022-10-05T23:36:05.651Z,101514.22
2022-10-05T23:39:20.675Z,101521.47
2022-10-05T23:42:29.218Z,101523.34
2022-10-05T23:45:37.675Z,101523.91
2022-10-05T23:48:46.131Z,101525.50
2022-10-05T23:52:00.654Z,101519.62
2022-10-05T23:55:04.658Z,101521.81
2022-10-05T23:58:19.661Z,101519.91
